Time;durP1;ratioP1;P1;durP2;ratioP2;P2;SDS_P1;SDS_P2;PMS_P1;PMS_P2;Temp;Humidity;BMP_temperature;BMP_pressure;BME280_temperature;BME280_humidity;BME280_pressure;Samples;Min_cycle;Max_cycle;Signal;HPM_P1;HPM_P2
2023/04/24 00:01:17;;;;;;;1.00;1.00;;;;;;;15.29;59.28;99792.19;4977117;28;97715;-49
2023/04/24 00:03:42;;;;;;;1.10;1.10;;;;;;;15.28;59.39;99791.44;4980659;28;97268;-49
2023/04/24 00:06:08;;;;;;;1.30;1.30;;;;;;;15.29;59.46;99792.19;4980808;28;97080;-49
2023/04/24 00:08:36;;;;;;;1.00;0.90;;;;;;;15.27;59.32;99792.72;4979842;28;96589;-49
2023/04/24 00:11:01;;;;;;;1.00;1.00;;;;;;;15.26;59.43;99796.06;4977224;28;97162;-50
2023/04/24 00:13:28;;;;;;;0.80;0.80;;;;;;;15.27;59.33;99800.28;4979468;28;97811;-49
2023/04/24 00:15:54;;;;;;;1.03;0.90;;;;;;;15.25;59.00;99800.09;4977666;28;97297;-50
2023/04/24 00:18:20;;;;;;;0.77;0.77;;;;;;;15.24;59.31;99798.63;4979583;28;96757;-49
2023/04/24 00:20:46;;;;;;;0.60;0.60;;;;;;;15.22;59.27;99790.13;4977975;28;97799;-49
2023/04/24 00:23:11;;;;;;;0.80;0.80;;;;;;;15.21;59.22;99791.41;4978357;28;96763;-49
2023/04/24 00:25:36;;;;;;;3.70;0.90;;;;;;;15.21;59.16;99794.16;4975897;28;97689;-50
2023/04/24 00:28:02;;;;;;;0.60;0.60;;;;;;;15.18;59.49;99798.03;4977886;28;97551;-50
2023/04/24 00:30:27;;;;;;;0.77;0.77;;;;;;;15.17;59.23;99794.53;4977107;28;97229;-50
2023/04/24 00:32:52;;;;;;;0.67;0.67;;;;;;;15.19;59.10;99793.97;4977295;28;97089;-50
2023/04/24 00:35:19;;;;;;;0.80;0.80;;;;;;;15.17;59.18;99799.31;4980204;28;97190;-49
2023/04/24 00:37:45;;;;;;;0.83;0.83;;;;;;;15.15;59.11;99799.13;4980584;28;96775;-50
2023/04/24 00:40:10;;;;;;;0.80;0.70;;;;;;;15.14;59.25;99798.38;4981292;28;97892;-50
2023/04/24 00:42:36;;;;;;;0.60;0.60;;;;;;;15.15;59.03;99790.81;4979625;28;97333;-49
2023/04/24 00:45:03;;;;;;;0.70;0.50;;;;;;;15.14;59.02;99789.31;4981524;28;97228;-50
2023/04/24 00:47:28;;;;;;;0.60;0.60;;;;;;;15.14;59.03;99786.53;4980721;28;96793;-50
2023/04/24 00:49:54;;;;;;;0.63;0.63;;;;;;;15.10;58.92;99788.91;4976951;28;97092;-50
2023/04/24 00:52:20;;;;;;;0.90;0.70;;;;;;;15.06;59.08;99783.75;4978444;28;97400;-50
2023/04/24 00:54:45;;;;;;;0.60;0.60;;;;;;;15.06;58.93;99785.75;4977738;28;97376;-50
2023/04/24 00:57:14;;;;;;;0.60;0.50;;;;;;;15.02;59.02;99794.44;4978908;28;96994;-50
2023/04/24 00:59:41;;;;;;;0.50;0.50;;;;;;;15.02;58.83;99789.63;4978921;28;97333;-49
2023/04/24 01:02:07;;;;;;;0.50;0.50;;;;;;;15.01;58.98;99790.16;4978391;28;97350;-49
2023/04/24 01:04:33;;;;;;;0.63;0.57;;;;;;;14.99;58.93;99787.94;4976575;28;97755;-50
2023/04/24 01:06:58;;;;;;;0.57;0.50;;;;;;;14.96;58.95;99791.06;4975908;28;97191;-50
2023/04/24 01:09:24;;;;;;;0.87;0.53;;;;;;;14.95;58.88;99795.84;4978769;28;96876;-49
2023/04/24 01:11:50;;;;;;;1.53;0.60;;;;;;;14.93;58.81;99787.34;4977174;28;97202;-49
2023/04/24 01:14:16;;;;;;;0.60;0.50;;;;;;;14.90;58.91;99796.72;4978031;28;97007;-49
2023/04/24 01:16:41;;;;;;;0.80;0.80;;;;;;;14.87;58.83;99789.50;4976205;28;97019;-49
2023/04/24 01:19:07;;;;;;;0.90;0.57;;;;;;;14.85;58.91;99794.84;4978782;28;101850;-49
2023/04/24 01:21:36;;;;;;;0.60;0.60;;;;;;;14.83;58.96;99796.69;4977793;28;96991;-50
2023/04/24 01:24:02;;;;;;;0.77;0.70;;;;;;;14.83;58.79;99805.00;4977723;28;97191;-50
2023/04/24 01:26:27;;;;;;;0.60;0.60;;;;;;;14.82;58.88;99789.66;4980426;28;96920;-49
2023/04/24 01:28:53;;;;;;;0.50;0.40;;;;;;;14.82;58.76;99786.88;4975515;28;97050;-50
2023/04/24 01:31:19;;;;;;;0.50;0.43;;;;;;;14.80;58.84;99781.16;4979097;28;97279;-50
2023/04/24 01:33:44;;;;;;;0.60;0.60;;;;;;;14.75;58.77;99782.78;4976729;28;97777;-50
2023/04/24 01:36:13;;;;;;;0.60;0.60;;;;;;;14.71;58.58;99792.72;4978140;28;97223;-49
2023/04/24 01:38:38;;;;;;;0.50;0.50;;;;;;;14.67;58.78;99781.97;4977617;28;97718;-49
2023/04/24 01:41:04;;;;;;;0.80;0.50;;;;;;;14.66;58.63;99780.47;4974845;28;97004;-49
2023/04/24 01:43:29;;;;;;;0.60;0.60;;;;;;;14.62;58.59;99782.84;4977537;28;97743;-50
2023/04/24 01:45:55;;;;;;;0.50;0.50;;;;;;;14.62;58.44;99784.88;4978438;28;96812;-50
2023/04/24 01:48:20;;;;;;;0.63;0.63;;;;;;;14.63;58.41;99784.34;4980417;28;96930;-49
2023/04/24 01:50:46;;;;;;;1.27;0.60;;;;;;;14.60;58.24;99779.88;4979342;28;96934;-49
2023/04/24 01:53:12;;;;;;;0.70;0.50;;;;;;;14.61;58.04;99777.88;4977221;28;96996;-50
2023/04/24 01:55:37;;;;;;;0.50;0.50;;;;;;;14.61;57.92;99784.13;4979102;28;97365;-50
2023/04/24 01:58:02;;;;;;;0.60;0.57;;;;;;;14.60;57.75;99776.38;4978036;28;97312;-49
2023/04/24 02:00:28;;;;;;;0.70;0.60;;;;;;;14.59;57.71;99789.47;4980716;28;97305;-49
2023/04/24 02:02:53;;;;;;;0.50;0.40;;;;;;;14.57;57.40;99788.53;4976926;28;97098;-50
2023/04/24 02:05:19;;;;;;;1.27;0.50;;;;;;;14.56;57.28;99781.50;4977684;28;97307;-49
2023/04/24 02:07:44;;;;;;;1.23;0.40;;;;;;;14.52;57.22;99790.16;4976684;28;97289;-49
2023/04/24 02:10:10;;;;;;;0.50;0.40;;;;;;;14.51;57.19;99794.19;4975709;28;98009;-49
2023/04/24 02:12:35;;;;;;;0.50;0.30;;;;;;;14.50;57.02;99795.50;4976298;28;97189;-50
2023/04/24 02:15:00;;;;;;;0.50;0.30;;;;;;;14.47;56.79;99793.78;4976691;28;97361;-49
2023/04/24 02:17:26;;;;;;;0.70;0.40;;;;;;;14.47;56.79;99796.56;4978551;28;96931;-50
2023/04/24 02:19:51;;;;;;;0.50;0.30;;;;;;;14.49;56.71;99790.47;4979918;28;96729;-49
2023/04/24 02:22:17;;;;;;;0.57;0.40;;;;;;;14.46;56.72;99797.13;4975186;28;108174;-49
2023/04/24 02:24:42;;;;;;;0.40;0.30;;;;;;;14.49;56.70;99796.03;4976576;28;96855;-49
2023/04/24 02:27:07;;;;;;;0.47;0.40;;;;;;;14.47;56.58;99804.88;4979857;28;97259;-49
2023/04/24 02:29:33;;;;;;;0.80;0.50;;;;;;;14.43;56.66;99804.47;4978485;28;97377;-49
2023/04/24 02:31:58;;;;;;;0.50;0.30;;;;;;;14.41;56.75;99801.50;4978766;28;97149;-50
2023/04/24 02:34:24;;;;;;;0.50;0.30;;;;;;;14.39;56.97;99803.31;4982930;28;99543;-50
2023/04/24 02:36:49;;;;;;;2.23;0.50;;;;;;;14.41;56.91;99803.50;4980805;28;97318;-50
2023/04/24 02:39:16;;;;;;;2.00;0.60;;;;;;;14.39;57.09;99815.13;4978708;28;97074;-50
2023/04/24 02:41:42;;;;;;;0.50;0.30;;;;;;;14.41;57.10;99806.28;4978058;28;96960;-49
2023/04/24 02:44:07;;;;;;;0.50;0.40;;;;;;;14.40;56.91;99799.25;4979263;28;96663;-50
2023/04/24 02:46:33;;;;;;;0.47;0.40;;;;;;;14.32;56.82;99787.38;4978786;28;97980;-50
2023/04/24 02:48:58;;;;;;;0.50;0.40;;;;;;;14.27;56.98;99786.19;4978874;28;97459;-50
2023/04/24 02:51:23;;;;;;;0.70;0.43;;;;;;;14.23;57.19;99785.78;4978053;28;97693;-50
2023/04/24 02:53:49;;;;;;;0.50;0.40;;;;;;;14.24;57.23;99779.72;4976076;28;96973;-49
2023/04/24 02:56:14;;;;;;;0.50;0.40;;;;;;;14.24;57.32;99787.28;4980560;28;97424;-50
2023/04/24 02:58:40;;;;;;;0.60;0.40;;;;;;;14.27;57.44;99777.91;4976204;28;97309;-50
2023/04/24 03:01:05;;;;;;;0.50;0.40;;;;;;;14.27;57.43;99775.13;4972799;28;97839;-50
2023/04/24 03:03:31;;;;;;;0.50;0.40;;;;;;;14.26;57.36;99777.16;4980136;28;96698;-49
2023/04/24 03:05:57;;;;;;;0.50;0.40;;;;;;;14.27;57.59;99769.59;4977715;28;97229;-50
2023/04/24 03:08:22;;;;;;;0.63;0.63;;;;;;;14.27;57.49;99769.59;4979735;28;97318;-50
2023/04/24 03:10:48;;;;;;;0.50;0.40;;;;;;;14.27;57.38;99764.81;4974196;28;96987;-49
2023/04/24 03:13:13;;;;;;;1.17;0.47;;;;;;;14.27;57.32;99759.28;4980327;28;97147;-50
2023/04/24 03:15:39;;;;;;;0.50;0.40;;;;;;;14.26;57.29;99752.25;4975294;28;97246;-49
2023/04/24 03:18:04;;;;;;;0.50;0.50;;;;;;;14.24;57.28;99756.84;4974613;28;105518;-50
2023/04/24 03:20:29;;;;;;;0.50;0.40;;;;;;;14.19;57.29;99752.94;4975055;28;97701;-49
2023/04/24 03:22:56;;;;;;;0.50;0.50;;;;;;;14.16;57.02;99753.25;4977513;28;96999;-49
2023/04/24 03:25:21;;;;;;;1.23;0.40;;;;;;;14.11;57.02;99752.09;4977477;28;97192;-49
2023/04/24 03:27:47;;;;;;;0.60;0.50;;;;;;;14.08;57.06;99747.66;4977596;28;97320;-49
2023/04/24 03:30:12;;;;;;;0.50;0.40;;;;;;;14.04;56.92;99746.50;4977963;28;97161;-49
2023/04/24 03:32:39;;;;;;;0.53;0.53;;;;;;;14.01;57.25;99753.09;4976978;28;97265;-50
2023/04/24 03:35:06;;;;;;;0.50;0.47;;;;;;;13.96;57.01;99751.94;4977941;28;97503;-50
2023/04/24 03:37:31;;;;;;;0.60;0.60;;;;;;;13.93;57.13;99753.03;4974487;28;97529;-49
2023/04/24 03:39:56;;;;;;;0.53;0.50;;;;;;;13.93;57.04;99769.63;4977175;28;113036;-50
2023/04/24 03:42:22;;;;;;;1.33;0.50;;;;;;;13.90;57.02;99758.88;4977060;28;97004;-50
2023/04/24 03:44:48;;;;;;;0.80;0.70;;;;;;;13.86;57.24;99755.72;4976295;28;102429;-50
2023/04/24 03:47:13;;;;;;;0.50;0.40;;;;;;;13.85;56.91;99763.25;4976676;28;97978;-49
2023/04/24 03:49:38;;;;;;;0.50;0.40;;;;;;;13.81;57.03;99751.03;4974221;28;98293;-49
2023/04/24 03:52:04;;;;;;;0.50;0.50;;;;;;;13.79;57.08;99756.38;4976456;28;99487;-49
2023/04/24 03:54:29;;;;;;;0.70;0.53;;;;;;;13.78;56.92;99757.66;4977337;28;98508;-49
2023/04/24 03:56:54;;;;;;;0.50;0.40;;;;;;;13.74;56.88;99766.25;4975111;28;96947;-49
2023/04/24 03:59:19;;;;;;;0.50;0.40;;;;;;;13.73;57.00;99762.03;4976943;28;97524;-50
2023/04/24 04:01:45;;;;;;;0.57;0.53;;;;;;;13.73;56.99;99766.81;4978211;28;97760;-49
2023/04/24 04:04:11;;;;;;;0.50;0.40;;;;;;;13.72;56.93;99773.59;4978453;28;97083;-49
2023/04/24 04:06:36;;;;;;;0.50;0.50;;;;;;;13.71;56.99;99766.59;4974633;28;97032;-50
2023/04/24 04:09:03;;;;;;;0.60;0.40;;;;;;;13.71;56.94;99761.06;4975635;28;97396;-50
2023/04/24 04:11:28;;;;;;;0.60;0.47;;;;;;;13.72;56.59;99762.53;4980202;28;97328;-50
2023/04/24 04:13:54;;;;;;;0.60;0.60;;;;;;;13.71;56.46;99758.31;4978404;28;96906;-50
2023/04/24 04:16:20;;;;;;;0.90;0.63;;;;;;;13.70;56.56;99763.09;4974169;28;97076;-50
2023/04/24 04:18:45;;;;;;;0.80;0.70;;;;;;;13.75;56.37;99758.72;4973986;28;98818;-49
2023/04/24 04:21:11;;;;;;;0.60;0.60;;;;;;;13.73;56.25;99752.97;4977500;28;97061;-49
2023/04/24 04:23:36;;;;;;;0.70;0.60;;;;;;;13.75;56.15;99748.41;4977063;28;96904;-50
2023/04/24 04:26:03;;;;;;;2.30;0.60;;;;;;;13.77;56.18;99747.88;4975590;28;97272;-49
2023/04/24 04:28:30;;;;;;;0.50;0.50;;;;;;;13.75;56.08;99742.13;4980187;28;97263;-48
2023/04/24 04:30:57;;;;;;;0.50;0.50;;;;;;;13.74;56.24;99740.66;4976379;28;100538;-49
2023/04/24 04:33:25;;;;;;;0.50;0.43;;;;;;;13.74;56.04;99741.38;4977078;28;97407;-49
2023/04/24 04:35:56;;;;;;;0.63;0.50;;;;;;;13.76;55.91;99738.09;4975427;28;97347;-50
2023/04/24 04:38:22;;;;;;;4.63;0.93;;;;;;;13.78;55.72;99743.84;4976051;28;97297;-50
2023/04/24 04:40:48;;;;;;;0.73;0.60;;;;;;;13.79;55.88;99745.31;4973519;28;96764;-50
2023/04/24 04:43:14;;;;;;;0.50;0.40;;;;;;;13.81;55.72;99746.25;4976873;28;96811;-50
2023/04/24 04:45:42;;;;;;;1.73;0.70;;;;;;;13.85;55.64;99748.69;4981927;28;98769;-50
2023/04/24 04:48:08;;;;;;;0.70;0.60;;;;;;;13.84;55.56;99755.50;4979803;28;97844;-50
2023/04/24 04:50:34;;;;;;;0.60;0.57;;;;;;;13.86;55.47;99759.22;4977143;28;96709;-49
2023/04/24 04:53:00;;;;;;;0.77;0.77;;;;;;;13.89;55.37;99757.41;4976602;28;96800;-50
2023/04/24 04:55:25;;;;;;;0.70;0.50;;;;;;;13.91;55.37;99754.84;4973901;28;98820;-50
2023/04/24 04:57:51;;;;;;;0.70;0.50;;;;;;;13.94;55.33;99762.81;4976043;28;97111;-50
2023/04/24 05:00:17;;;;;;;0.50;0.50;;;;;;;13.91;55.53;99776.97;4974598;28;97323;-50
2023/04/24 05:02:43;;;;;;;0.50;0.40;;;;;;;13.92;55.50;99770.16;4976769;28;97143;-49
2023/04/24 05:05:08;;;;;;;0.50;0.47;;;;;;;13.89;55.48;99768.47;4976464;28;97406;-50
2023/04/24 05:07:34;;;;;;;0.50;0.40;;;;;;;13.88;55.56;99773.25;4975323;28;97256;-50
2023/04/24 05:10:00;;;;;;;1.90;0.40;;;;;;;13.90;55.70;99764.41;4976819;28;97235;-50
2023/04/24 05:12:25;;;;;;;2.13;0.67;;;;;;;13.93;55.79;99766.88;4976531;28;96952;-50
2023/04/24 05:14:50;;;;;;;0.73;0.40;;;;;;;14.03;55.83;99762.34;4977508;28;98835;-50
2023/04/24 05:17:16;;;;;;;0.50;0.43;;;;;;;14.18;55.70;99767.28;4976918;28;104343;-50
2023/04/24 05:19:42;;;;;;;0.60;0.50;;;;;;;14.28;55.92;99769.03;4975429;28;96811;-50
2023/04/24 05:22:09;;;;;;;0.50;0.40;;;;;;;14.35;55.70;99773.19;4975328;28;97051;-49
2023/04/24 05:24:35;;;;;;;0.50;0.40;;;;;;;14.39;55.56;99773.63;4974867;28;99737;-50
2023/04/24 05:27:02;;;;;;;0.87;0.50;;;;;;;14.43;55.38;99776.03;4973843;28;98496;-50
2023/04/24 05:29:27;;;;;;;0.50;0.43;;;;;;;14.45;55.28;99777.00;4975323;28;97095;-49
2023/04/24 05:31:53;;;;;;;0.50;0.40;;;;;;;14.53;55.42;99777.78;4976992;28;97316;-50
2023/04/24 05:34:18;;;;;;;2.40;0.50;;;;;;;14.62;55.28;99774.56;4973165;28;97338;-50
2023/04/24 05:36:43;;;;;;;0.93;0.60;;;;;;;14.70;55.45;99780.16;4974525;28;112001;-50
2023/04/24 05:39:09;;;;;;;0.50;0.47;;;;;;;14.76;55.16;99787.03;4975524;28;97257;-50
2023/04/24 05:41:34;;;;;;;0.70;0.43;;;;;;;14.80;55.05;99776.38;4975786;28;97939;-50
2023/04/24 05:44:00;;;;;;;1.10;0.50;;;;;;;14.87;54.92;99781.19;4972191;28;97272;-49
2023/04/24 05:46:25;;;;;;;0.50;0.50;;;;;;;14.90;54.91;99785.66;4974469;28;97126;-50
2023/04/24 05:48:50;;;;;;;1.13;0.50;;;;;;;14.94;54.89;99779.75;4974211;28;96708;-50
2023/04/24 05:51:16;;;;;;;0.50;0.50;;;;;;;14.99;54.63;99782.41;4972258;28;97192;-50
2023/04/24 05:53:41;;;;;;;0.50;0.40;;;;;;;14.98;54.86;99783.69;4977893;28;105137;-49
2023/04/24 05:56:06;;;;;;;0.50;0.47;;;;;;;14.98;54.84;99780.91;4978299;28;97110;-50
2023/04/24 05:58:32;;;;;;;0.50;0.40;;;;;;;15.05;54.67;99779.47;4976206;28;97852;-50
2023/04/24 06:00:58;;;;;;;1.03;0.57;;;;;;;15.18;54.62;99781.41;4976349;28;97276;-50
2023/04/24 06:03:24;;;;;;;0.57;0.57;;;;;;;15.28;54.55;99785.91;4975987;28;96783;-50
2023/04/24 06:05:52;;;;;;;0.90;0.60;;;;;;;15.36;54.37;99786.69;4981737;28;98241;-50
2023/04/24 06:08:18;;;;;;;0.50;0.50;;;;;;;15.49;54.35;99785.84;4973223;28;96807;-50
2023/04/24 06:10:43;;;;;;;0.70;0.50;;;;;;;15.62;54.22;99785.72;4973094;28;96956;-50
2023/04/24 06:13:08;;;;;;;0.53;0.50;;;;;;;15.71;54.10;99790.75;4971692;28;104140;-50
2023/04/24 06:15:34;;;;;;;1.23;0.60;;;;;;;15.79;53.87;99791.56;4975696;28;105878;-50
2023/04/24 06:17:59;;;;;;;0.50;0.50;;;;;;;15.85;53.84;99803.22;4975231;28;96802;-50
2023/04/24 06:20:25;;;;;;;0.50;0.47;;;;;;;15.95;53.98;99801.38;4973671;28;97187;-50
2023/04/24 06:22:50;;;;;;;0.60;0.43;;;;;;;16.03;54.05;99806.97;4973765;28;96814;-50
2023/04/24 06:25:16;;;;;;;0.50;0.40;;;;;;;16.05;53.75;99799.59;4973381;28;96792;-49
2023/04/24 06:27:41;;;;;;;0.90;0.50;;;;;;;16.02;53.66;99799.94;4973768;28;97004;-49
2023/04/24 06:30:07;;;;;;;0.60;0.57;;;;;;;15.99;53.38;99801.78;4973284;28;97506;-49
2023/04/24 06:32:33;;;;;;;1.43;0.50;;;;;;;15.95;53.58;99797.88;4973346;28;100911;-50
2023/04/24 06:34:58;;;;;;;0.60;0.50;;;;;;;15.98;53.53;99794.75;4979327;28;109680;-49
2023/04/24 06:37:23;;;;;;;0.60;0.50;;;;;;;15.97;53.47;99796.03;4976325;28;96972;-50
2023/04/24 06:39:49;;;;;;;0.67;0.67;;;;;;;15.98;53.64;99791.22;4975946;28;97139;-50
2023/04/24 06:42:14;;;;;;;0.70;0.50;;;;;;;16.01;53.54;99788.09;4977093;28;98526;-50
2023/04/24 06:44:42;;;;;;;0.90;0.70;;;;;;;16.02;53.45;99786.06;4975683;28;97098;-51
2023/04/24 06:47:09;;;;;;;0.60;0.53;;;;;;;16.02;53.27;99792.34;4974789;28;97069;-51
2023/04/24 06:49:35;;;;;;;1.47;0.90;;;;;;;16.01;53.14;99796.41;4975418;28;97074;-50
2023/04/24 06:52:01;;;;;;;0.70;0.70;;;;;;;15.97;53.21;99800.84;4973922;28;96902;-50
2023/04/24 06:54:26;;;;;;;1.23;0.97;;;;;;;15.91;53.00;99801.00;4974145;28;97235;-51
2023/04/24 06:56:52;;;;;;;0.77;0.77;;;;;;;15.88;53.05;99796.56;4972158;28;102256;-51
2023/04/24 06:59:17;;;;;;;1.70;0.90;;;;;;;15.92;53.24;99802.50;4972833;28;96907;-51
2023/04/24 07:01:43;;;;;;;0.90;0.90;;;;;;;16.02;53.09;99808.25;4972975;28;102926;-51
2023/04/24 07:04:08;;;;;;;1.13;1.13;;;;;;;16.07;52.87;99812.91;4973742;28;97636;-50
2023/04/24 07:06:34;;;;;;;1.00;1.00;;;;;;;16.02;52.60;99813.81;4973680;28;97125;-49
2023/04/24 07:09:01;;;;;;;1.13;1.13;;;;;;;16.00;52.62;99819.16;4973349;28;96660;-49
2023/04/24 07:11:29;;;;;;;1.80;1.70;;;;;;;16.01;52.60;99817.88;4970517;28;97957;-51
2023/04/24 07:13:54;;;;;;;1.67;1.57;;;;;;;16.06;52.46;99816.97;4973968;28;97390;-51
2023/04/24 07:16:20;;;;;;;1.50;1.40;;;;;;;16.05;52.37;99821.78;4973914;28;96939;-50
2023/04/24 07:18:45;;;;;;;2.33;1.63;;;;;;;16.05;52.19;99829.38;4980271;28;96874;-51
2023/04/24 07:21:11;;;;;;;1.57;1.53;;;;;;;16.07;52.36;99824.75;4982211;28;97680;-47
2023/04/24 07:23:36;;;;;;;1.70;1.60;;;;;;;16.13;52.25;99825.31;4979199;28;97169;-51
2023/04/24 07:26:02;;;;;;;1.30;1.30;;;;;;;16.28;52.18;99836.47;4976245;28;97190;-51
2023/04/24 07:28:30;;;;;;;2.30;2.10;;;;;;;16.49;51.86;99845.38;4976992;28;97012;-50
2023/04/24 07:30:56;;;;;;;2.63;2.43;;;;;;;16.58;51.33;99835.06;4979775;28;97433;-51
2023/04/24 07:33:22;;;;;;;2.70;2.50;;;;;;;16.62;51.17;99838.94;4974951;28;97143;-50
2023/04/24 07:35:47;;;;;;;2.40;2.20;;;;;;;16.54;51.05;99843.75;4975855;28;96950;-51
2023/04/24 07:38:13;;;;;;;2.00;1.90;;;;;;;16.48;51.25;99848.72;4975373;28;97170;-48
2023/04/24 07:40:38;;;;;;;2.83;2.73;;;;;;;16.51;51.25;99849.69;4977433;28;107176;-49
2023/04/24 07:43:03;;;;;;;3.87;3.47;;;;;;;16.57;51.00;99839.88;4976473;28;97217;-51
2023/04/24 07:45:29;;;;;;;3.43;3.17;;;;;;;16.59;50.84;99851.16;4975702;28;101667;-51
2023/04/24 07:47:54;;;;;;;6.17;3.40;;;;;;;16.58;50.90;99855.22;4975222;28;97343;-49
2023/04/24 07:50:20;;;;;;;3.40;3.10;;;;;;;16.58;50.64;99860.78;4976793;28;97001;-51
2023/04/24 07:52:45;;;;;;;3.20;2.90;;;;;;;16.59;50.65;99873.38;4977212;28;96889;-51
2023/04/24 07:55:11;;;;;;;3.10;2.90;;;;;;;16.55;50.58;99863.94;4976843;28;96829;-51
2023/04/24 07:57:36;;;;;;;4.00;3.07;;;;;;;16.49;50.46;99870.38;4977025;28;96938;-50
2023/04/24 08:00:03;;;;;;;2.60;2.50;;;;;;;16.47;50.52;99866.66;4974502;28;97220;-49
2023/04/24 08:02:29;;;;;;;3.50;3.20;;;;;;;16.41;50.72;99880.72;4978632;28;96947;-51
2023/04/24 08:04:54;;;;;;;3.50;3.20;;;;;;;16.45;50.77;99872.03;4973524;28;97329;-51
2023/04/24 08:07:20;;;;;;;3.33;3.13;;;;;;;16.40;50.54;99873.66;4975640;28;97248;-51
2023/04/24 08:09:45;;;;;;;4.10;3.67;;;;;;;16.41;50.45;99885.53;4976719;28;97244;-51
2023/04/24 08:12:11;;;;;;;3.03;2.77;;;;;;;16.42;50.47;99884.25;4975786;28;97326;-49
2023/04/24 08:14:36;;;;;;;3.27;2.97;;;;;;;16.47;50.62;99870.19;4976374;28;96965;-51
2023/04/24 08:17:02;;;;;;;4.00;3.00;;;;;;;16.57;50.38;99878.00;4976912;28;97530;-49
2023/04/24 08:19:27;;;;;;;3.13;2.90;;;;;;;16.62;50.29;99879.88;4977840;28;96926;-51
2023/04/24 08:21:53;;;;;;;3.10;2.83;;;;;;;16.60;50.08;99876.91;4978480;28;97887;-49
2023/04/24 08:24:18;;;;;;;3.50;3.03;;;;;;;16.54;50.13;99884.66;4978508;28;97257;-51
2023/04/24 08:26:44;;;;;;;5.23;3.47;;;;;;;16.57;50.29;99889.13;4977060;28;97275;-51
2023/04/24 08:29:09;;;;;;;4.37;3.77;;;;;;;16.73;50.28;99899.69;4975183;28;97209;-51
2023/04/24 08:31:35;;;;;;;4.40;3.50;;;;;;;16.87;50.25;99894.72;4975706;28;96818;-51
2023/04/24 08:34:00;;;;;;;2.90;2.73;;;;;;;16.91;49.80;99890.28;4978515;28;98280;-51
2023/04/24 08:36:26;;;;;;;5.50;4.30;;;;;;;16.92;49.60;99889.00;4975404;28;97171;-50
2023/04/24 08:38:52;;;;;;;4.93;4.43;;;;;;;16.82;49.56;99899.16;4972970;28;97230;-48
2023/04/24 08:41:18;;;;;;;3.70;3.40;;;;;;;16.65;49.56;99887.84;4975329;28;96835;-50
2023/04/24 08:43:46;;;;;;;3.43;3.23;;;;;;;16.53;49.82;99902.63;4976354;28;96619;-50
2023/04/24 08:46:13;;;;;;;4.30;4.00;;;;;;;16.53;49.79;99897.06;4976487;28;97065;-50
2023/04/24 08:48:39;;;;;;;4.13;3.73;;;;;;;16.51;49.90;99908.75;4977073;28;97353;-50
2023/04/24 08:51:07;;;;;;;4.57;4.17;;;;;;;16.49;49.81;99905.72;4975279;28;97306;-48
2023/04/24 08:53:33;;;;;;;4.70;4.10;;;;;;;16.56;49.85;99907.81;4976711;28;96695;-51
2023/04/24 08:55:58;;;;;;;4.40;3.90;;;;;;;16.57;49.84;99905.78;4975290;28;96839;-50
2023/04/24 08:58:27;;;;;;;5.10;4.60;;;;;;;16.65;49.34;99900.97;4974594;28;97447;-50
2023/04/24 09:00:57;;;;;;;4.50;3.90;;;;;;;16.73;49.38;99915.63;4975107;28;96972;-50
2023/04/24 09:03:22;;;;;;;5.03;4.63;;;;;;;16.76;49.40;99909.72;4975695;28;97043;-50
2023/04/24 09:05:50;;;;;;;4.27;3.97;;;;;;;16.72;49.45;99897.47;4974381;28;97184;-48
2023/04/24 09:08:17;;;;;;;4.83;3.60;;;;;;;16.75;49.39;99911.00;4974429;28;97186;-51
2023/04/24 09:10:43;;;;;;;5.03;4.53;;;;;;;16.66;49.25;99906.00;4976241;28;97684;-50
2023/04/24 09:13:10;;;;;;;5.30;4.90;;;;;;;16.57;49.24;99903.00;4973422;28;96647;-51
2023/04/24 09:15:36;;;;;;;4.03;3.73;;;;;;;16.49;49.31;99903.69;4977074;28;97078;-51
2023/04/24 09:18:02;;;;;;;6.07;4.80;;;;;;;16.45;49.35;99905.34;4975271;28;96831;-51
2023/04/24 09:20:27;;;;;;;4.40;4.07;;;;;;;16.51;49.45;99905.97;4976500;28;97107;-51
2023/04/24 09:22:57;;;;;;;4.10;3.80;;;;;;;16.57;48.01;99911.31;4974623;28;96994;-51
2023/04/24 09:25:30;;;;;;;4.67;4.27;;;;;;;16.59;49.14;99917.06;4975622;28;97129;-51
2023/04/24 09:28:00;;;;;;;4.73;4.23;;;;;;;16.67;48.07;99920.59;4977663;28;96721;-50
2023/04/24 09:30:26;;;;;;;4.33;4.03;;;;;;;16.73;48.93;99915.63;4979241;28;96667;-51
2023/04/24 09:33:10;;;;;;;3.63;3.30;;;;;;;16.74;47.43;99922.66;4976835;28;96897;-50
2023/04/24 09:35:35;;;;;;;3.90;3.60;;;;;;;16.63;48.37;99920.97;4975207;28;96723;-50
2023/04/24 09:38:01;;;;;;;3.30;3.07;;;;;;;16.55;48.57;99916.69;4974513;28;108605;-51
2023/04/24 09:40:26;;;;;;;3.30;3.10;;;;;;;16.53;48.70;99913.72;4974886;28;96768;-51
2023/04/24 09:42:54;;;;;;;2.90;2.80;;;;;;;16.63;48.53;99911.91;4974876;28;97053;-50
2023/04/24 09:45:20;;;;;;;4.20;3.07;;;;;;;16.77;48.56;99919.53;4973021;28;97388;-50
2023/04/24 09:47:46;;;;;;;2.83;2.63;;;;;;;16.97;48.55;99929.72;4972172;28;97064;-51
2023/04/24 09:50:13;;;;;;;3.40;3.10;;;;;;;17.25;48.29;99920.50;4974921;28;97278;-51
2023/04/24 09:52:43;;;;;;;3.90;3.60;;;;;;;17.38;47.39;99914.75;4974529;28;97167;-51
2023/04/24 09:55:17;;;;;;;2.93;2.73;;;;;;;17.52;47.41;99921.59;4976656;28;96823;-50
2023/04/24 09:57:53;;;;;;;3.00;2.80;;;;;;;17.59;46.88;99922.91;4972311;28;97023;-49
2023/04/24 10:00:37;;;;;;;2.87;2.67;;;;;;;17.45;46.00;99919.53;4975340;28;96691;-50
2023/04/24 10:03:04;;;;;;;3.20;3.00;;;;;;;17.33;47.52;99924.00;4977088;28;96598;-49
2023/04/24 10:05:35;;;;;;;3.10;2.80;;;;;;;17.33;47.34;99921.22;4975456;28;96664;-50
2023/04/24 10:08:03;;;;;;;3.17;2.90;;;;;;;17.23;47.56;99923.09;4974542;28;96810;-51
2023/04/24 10:10:29;;;;;;;2.87;2.77;;;;;;;17.20;47.71;99926.97;4974038;28;97162;-51
2023/04/24 10:12:55;;;;;;;2.90;2.70;;;;;;;17.14;47.70;99929.97;4974012;28;96903;-51
2023/04/24 10:15:21;;;;;;;2.57;2.37;;;;;;;17.00;47.73;99928.63;4974253;28;96874;-51
2023/04/24 10:17:53;;;;;;;3.57;3.30;;;;;;;16.81;47.50;99933.78;4976230;28;97781;-51
2023/04/24 10:20:23;;;;;;;2.10;2.00;;;;;;;16.72;47.33;99934.31;4976091;28;97248;-50
2023/04/24 10:22:50;;;;;;;2.30;2.20;;;;;;;16.61;47.95;99931.16;4975475;28;97359;-51
2023/04/24 10:25:24;;;;;;;2.17;2.07;;;;;;;16.58;47.59;99932.25;4974595;28;97025;-51
2023/04/24 10:27:51;;;;;;;2.40;2.20;;;;;;;16.54;48.02;99934.63;4976063;28;97393;-49
2023/04/24 10:30:18;;;;;;;2.70;2.50;;;;;;;16.44;48.06;99934.41;4973390;28;97240;-51
2023/04/24 10:32:44;;;;;;;2.23;2.10;;;;;;;16.37;48.17;99926.78;4974652;28;97057;-51
2023/04/24 10:35:12;;;;;;;2.80;2.63;;;;;;;16.33;48.20;99929.94;4974632;28;97154;-50
2023/04/24 10:37:41;;;;;;;2.10;2.00;;;;;;;16.27;48.37;99925.84;4971171;28;97249;-51
2023/04/24 10:40:08;;;;;;;2.40;2.10;;;;;;;16.24;48.21;99924.16;4976901;28;96923;-49
2023/04/24 10:42:34;;;;;;;2.00;1.90;;;;;;;16.23;48.24;99928.19;4974077;28;97001;-50
2023/04/24 10:45:01;;;;;;;2.03;1.93;;;;;;;16.26;48.23;99921.56;4976025;28;96977;-51
2023/04/24 10:47:27;;;;;;;2.20;2.10;;;;;;;16.46;48.19;99927.00;4973224;28;97598;-51
2023/04/24 10:49:52;;;;;;;2.20;2.07;;;;;;;16.67;48.13;99920.59;4975066;28;109643;-49
2023/04/24 10:52:18;;;;;;;2.07;1.97;;;;;;;16.83;47.66;99925.66;4980932;28;97126;-51
2023/04/24 10:54:45;;;;;;;2.33;1.97;;;;;;;16.96;47.63;99930.28;4980158;28;96928;-51
2023/04/24 10:57:22;;;;;;;4.27;2.20;;;;;;;16.99;47.01;99927.13;4979132;28;97065;-50
2023/04/24 10:59:50;;;;;;;1.80;1.70;;;;;;;17.12;47.62;99926.97;4976403;28;97009;-51
2023/04/24 11:02:17;;;;;;;1.30;1.30;;;;;;;17.21;47.43;99929.19;4976931;28;96930;-50
2023/04/24 11:04:43;;;;;;;2.10;1.90;;;;;;;17.17;47.17;99928.81;4977236;28;97177;-51
2023/04/24 11:07:10;;;;;;;1.77;1.67;;;;;;;17.11;47.00;99924.75;4977272;28;97455;-51
2023/04/24 11:09:36;;;;;;;1.50;1.40;;;;;;;16.85;47.28;99936.19;4974766;28;97072;-50
2023/04/24 11:12:13;;;;;;;1.23;1.23;;;;;;;16.71;46.96;99932.13;4979647;28;97086;-50
2023/04/24 11:14:57;;;;;;;1.40;1.30;;;;;;;16.65;47.34;99932.28;4976310;28;97023;-51
2023/04/24 11:17:33;;;;;;;1.00;1.00;;;;;;;16.77;47.25;99938.97;4977409;28;97869;-49
2023/04/24 11:20:04;;;;;;;1.60;1.50;;;;;;;16.92;47.48;99933.44;4975968;28;97116;-52
2023/04/24 11:22:34;;;;;;;1.43;1.33;;;;;;;16.91;47.24;99931.19;4978965;28;96936;-49
2023/04/24 11:25:02;;;;;;;1.10;1.10;;;;;;;16.86;47.53;99932.13;4980501;28;97938;-51
2023/04/24 11:27:30;;;;;;;1.33;1.00;;;;;;;16.69;47.31;99932.66;4977758;28;97837;-50